createdAt,value
2018-07-27T00:01:12.194Z,19.10
2018-07-27T00:06:08.474Z,19.00
2018-07-27T00:11:04.987Z,18.90
2018-07-27T00:13:33.245Z,18.90
2018-07-27T00:16:01.861Z,18.90
2018-07-27T00:18:30.995Z,18.80
2018-07-27T00:25:56.196Z,18.80
2018-07-27T00:28:31.051Z,18.70
2018-07-27T00:30:59.428Z,18.70
2018-07-27T00:33:27.728Z,18.70
2018-07-27T00:38:37.837Z,18.60
2018-07-27T00:41:06.125Z,18.60
2018-07-27T00:48:30.394Z,18.50
2018-07-27T00:53:27.116Z,18.40
2018-07-27T00:55:55.610Z,18.40
2018-07-27T00:58:23.991Z,18.30
2018-07-27T01:00:52.504Z,18.30
2018-07-27T01:03:20.886Z,18.30
2018-07-27T01:05:49.385Z,18.30
2018-07-27T01:08:18.154Z,18.20
2018-07-27T01:10:46.604Z,18.20
2018-07-27T01:13:15.095Z,18.20
2018-07-27T01:18:18.980Z,18.10
2018-07-27T01:20:47.358Z,18.10
2018-07-27T01:23:16.087Z,18.00
2018-07-27T01:25:44.684Z,18.00
2018-07-27T01:30:41.364Z,18.00
2018-07-27T01:33:09.664Z,18.00
2018-07-27T01:35:38.186Z,18.00
2018-07-27T01:38:06.421Z,17.90
2018-07-27T01:40:34.886Z,17.90
2018-07-27T01:43:03.159Z,17.90
2018-07-27T01:45:32.685Z,17.80
2018-07-27T01:48:01.004Z,17.80
2018-07-27T01:50:29.394Z,17.80
2018-07-27T01:52:57.711Z,17.80
2018-07-27T01:55:30.053Z,17.80
2018-07-27T01:57:58.692Z,17.80
2018-07-27T02:00:27.084Z,17.80
2018-07-27T02:05:24.489Z,17.70
2018-07-27T02:07:52.777Z,17.70
2018-07-27T02:10:21.191Z,17.70
2018-07-27T02:12:49.478Z,17.70
2018-07-27T02:15:17.883Z,17.70
2018-07-27T02:20:15.310Z,17.60
2018-07-27T02:22:43.700Z,17.60
2018-07-27T02:25:12.529Z,17.60
2018-07-27T02:27:40.898Z,17.50
2018-07-27T02:30:09.297Z,17.50
2018-07-27T02:32:38.028Z,17.50
2018-07-27T02:35:06.434Z,17.50
2018-07-27T02:37:36.154Z,17.40
2018-07-27T02:40:04.616Z,17.40
2018-07-27T02:42:32.838Z,17.40
2018-07-27T02:45:01.130Z,17.40
2018-07-27T02:50:08.384Z,17.40
2018-07-27T02:52:36.751Z,17.30
2018-07-27T02:55:05.397Z,17.30
2018-07-27T02:57:34.919Z,17.30
2018-07-27T03:00:03.905Z,17.20
2018-07-27T03:07:36.387Z,17.20
2018-07-27T03:10:05.281Z,17.20
2018-07-27T03:12:33.753Z,17.20
2018-07-27T03:15:02.071Z,17.20
2018-07-27T03:17:30.469Z,17.20
2018-07-27T03:19:58.893Z,17.20
2018-07-27T03:22:27.288Z,17.20
2018-07-27T03:29:53.109Z,17.20
2018-07-27T03:32:29.797Z,17.10
2018-07-27T03:34:58.262Z,17.10
2018-07-27T03:37:26.456Z,17.10
2018-07-27T03:39:55.040Z,17.10
2018-07-27T03:42:24.516Z,17.10
2018-07-27T03:44:52.805Z,17.10
2018-07-27T03:49:49.392Z,17.20
2018-07-27T03:52:18.894Z,17.30
2018-07-27T03:54:47.334Z,17.30
2018-07-27T03:57:15.931Z,17.40
2018-07-27T03:59:44.355Z,17.40
2018-07-27T04:02:14.918Z,17.40
2018-07-27T04:04:43.489Z,17.50
2018-07-27T04:07:11.833Z,17.60
2018-07-27T04:09:40.391Z,17.60
2018-07-27T04:12:08.695Z,17.60
2018-07-27T04:14:37.493Z,17.60
2018-07-27T04:17:05.987Z,17.70
2018-07-27T04:19:34.464Z,17.80
2018-07-27T04:22:02.988Z,17.80
2018-07-27T04:26:59.356Z,18.00
2018-07-27T04:29:33.186Z,18.10
2018-07-27T04:32:01.598Z,18.30
2018-07-27T04:36:59.239Z,18.80
2018-07-27T04:39:28.016Z,19.10
2018-07-27T04:44:24.246Z,20.50
2018-07-27T04:46:53.953Z,21.40
2018-07-27T04:49:22.851Z,21.90
2018-07-27T04:51:51.247Z,22.50
2018-07-27T04:54:20.077Z,23.10
2018-07-27T04:59:16.570Z,24.10
2018-07-27T05:01:45.460Z,24.50
2018-07-27T05:06:42.206Z,24.30
2018-07-27T05:09:16.178Z,24.20
2018-07-27T05:14:12.802Z,24.30
2018-07-27T05:16:41.258Z,24.20
2018-07-27T05:19:10.686Z,24.10
2018-07-27T05:21:39.193Z,24.00
2018-07-27T05:24:08.384Z,23.90
2018-07-27T05:26:36.693Z,23.80
2018-07-27T05:29:05.117Z,23.70
2018-07-27T05:31:33.306Z,23.80
2018-07-27T05:34:01.508Z,23.90
2018-07-27T05:36:29.946Z,24.30
2018-07-27T05:38:58.402Z,24.90
2018-07-27T05:41:35.494Z,25.40
2018-07-27T05:46:31.815Z,26.30
2018-07-27T05:49:00.186Z,26.90
2018-07-27T05:53:57.740Z,29.70
2018-07-27T05:56:26.129Z,30.90
2018-07-27T05:58:55.281Z,32.10
2018-07-27T06:01:25.377Z,33.10
2018-07-27T06:03:53.676Z,34.00
2018-07-27T06:06:21.938Z,34.70
2018-07-27T06:08:50.711Z,35.60
2018-07-27T06:11:19.479Z,35.90
2018-07-27T06:13:48.063Z,36.30
2018-07-27T06:16:16.478Z,36.60
2018-07-27T06:21:13.074Z,37.50
2018-07-27T06:23:41.294Z,37.40
2018-07-27T06:26:09.878Z,37.50
2018-07-27T06:28:38.228Z,38.20
2018-07-27T06:31:06.416Z,39.00
2018-07-27T06:33:34.676Z,39.30
2018-07-27T06:36:03.112Z,39.40
2018-07-27T06:38:31.371Z,39.20
2018-07-27T06:40:59.747Z,38.70
2018-07-27T06:43:28.252Z,38.50
2018-07-27T06:48:25.591Z,39.20
2018-07-27T06:50:53.957Z,40.00
2018-07-27T06:53:22.729Z,40.80
2018-07-27T06:55:51.113Z,41.60
2018-07-27T06:58:19.677Z,42.50
2018-07-27T07:03:16.321Z,43.00
2018-07-27T07:05:44.779Z,43.40
2018-07-27T07:08:13.001Z,43.50
2018-07-27T07:10:41.165Z,43.40
2018-07-27T07:15:37.674Z,43.10
2018-07-27T07:18:06.270Z,41.70
2018-07-27T07:23:02.786Z,40.60
2018-07-27T07:25:31.166Z,39.10
2018-07-27T07:27:59.363Z,37.80
2018-07-27T07:30:27.880Z,37.70
2018-07-27T07:32:56.259Z,38.90
2018-07-27T07:40:21.138Z,41.80
2018-07-27T07:42:49.440Z,42.50
2018-07-27T07:47:45.807Z,42.70
2018-07-27T07:50:14.173Z,41.20
2018-07-27T07:52:43.052Z,39.30
2018-07-27T08:00:08.626Z,35.50
2018-07-27T08:02:37.191Z,35.10
2018-07-27T08:05:05.563Z,36.50
2018-07-27T08:10:02.818Z,36.40
2018-07-27T08:12:31.279Z,36.00
2018-07-27T08:14:59.744Z,36.20
2018-07-27T08:17:28.184Z,35.60
2018-07-27T08:19:56.574Z,35.10
2018-07-27T08:29:49.267Z,36.00
2018-07-27T08:32:18.462Z,36.50
2018-07-27T08:37:15.195Z,35.50
2018-07-27T08:39:43.599Z,35.20
2018-07-27T08:42:12.181Z,34.80
2018-07-27T08:44:41.351Z,34.40
2018-07-27T08:47:09.810Z,33.90
2018-07-27T08:52:06.711Z,33.10
2018-07-27T08:54:35.081Z,32.90
2018-07-27T08:57:03.441Z,32.50
2018-07-27T08:59:31.691Z,32.20
2018-07-27T09:02:00.404Z,31.90
2018-07-27T09:04:28.773Z,31.70
2018-07-27T09:06:57.198Z,31.60
2018-07-27T09:09:25.707Z,31.40
2018-07-27T09:11:54.304Z,31.10
2018-07-27T09:14:22.768Z,30.90
2018-07-27T09:16:51.206Z,30.90
2018-07-27T09:19:19.588Z,31.10
2018-07-27T09:24:16.388Z,31.10
2018-07-27T09:26:44.594Z,31.10
2018-07-27T09:31:41.404Z,31.00
2018-07-27T09:34:09.615Z,31.00
2018-07-27T09:36:37.757Z,30.90
2018-07-27T09:39:08.388Z,30.80
2018-07-27T09:41:37.037Z,30.70
2018-07-27T09:46:33.961Z,30.50
2018-07-27T09:49:02.460Z,30.20
2018-07-27T09:51:31.051Z,29.80
2018-07-27T09:53:59.325Z,29.50
2018-07-27T09:56:27.868Z,29.40
2018-07-27T09:58:56.334Z,29.50
2018-07-27T10:03:54.790Z,29.40
2018-07-27T10:11:20.572Z,29.60
2018-07-27T10:13:49.202Z,29.70
2018-07-27T10:16:17.735Z,29.70
2018-07-27T10:18:46.499Z,29.70
2018-07-27T10:23:44.135Z,29.40
2018-07-27T10:28:40.640Z,29.10
2018-07-27T10:31:09.649Z,28.80
2018-07-27T10:33:38.075Z,28.50
2018-07-27T10:36:06.241Z,28.50
2018-07-27T10:38:34.565Z,28.50
2018-07-27T10:41:04.045Z,28.60
2018-07-27T10:43:33.405Z,28.60
2018-07-27T10:46:01.673Z,28.60
2018-07-27T10:48:31.506Z,28.70
2018-07-27T10:51:00.212Z,28.90
2018-07-27T10:53:28.484Z,29.00
2018-07-27T10:58:25.018Z,29.60
2018-07-27T11:00:53.518Z,29.80
2018-07-27T11:03:21.890Z,29.90
2018-07-27T11:05:51.408Z,30.00
2018-07-27T11:08:20.596Z,30.10
2018-07-27T11:10:49.245Z,30.00
2018-07-27T11:13:17.753Z,30.00
2018-07-27T11:15:46.367Z,30.00
2018-07-27T11:18:14.865Z,30.00
2018-07-27T11:20:43.331Z,30.10
2018-07-27T11:23:11.959Z,30.30
2018-07-27T11:28:08.711Z,30.40
2018-07-27T11:30:37.148Z,30.20
2018-07-27T11:33:05.891Z,30.00
2018-07-27T11:35:34.304Z,29.90
2018-07-27T11:38:02.668Z,29.90
2018-07-27T11:40:30.889Z,30.00
2018-07-27T11:42:59.236Z,29.90
2018-07-27T11:45:27.762Z,29.80
2018-07-27T11:47:56.062Z,29.50
2018-07-27T11:50:28.263Z,29.20
2018-07-27T11:52:56.860Z,28.50
2018-07-27T11:55:25.277Z,27.80
2018-07-27T11:57:53.779Z,27.20
2018-07-27T12:00:22.945Z,26.70
2018-07-27T12:02:51.271Z,26.30
2018-07-27T12:05:19.877Z,26.10
2018-07-27T12:07:50.345Z,25.90
2018-07-27T12:10:18.749Z,25.80
2018-07-27T12:12:47.214Z,25.90
2018-07-27T12:17:44.238Z,26.00
2018-07-27T12:20:12.708Z,26.10
2018-07-27T12:22:41.590Z,26.20
2018-07-27T12:25:10.724Z,26.20
2018-07-27T12:27:39.165Z,26.30
2018-07-27T12:30:07.739Z,26.40
2018-07-27T12:32:37.392Z,26.60
2018-07-27T12:35:06.013Z,26.80
2018-07-27T12:37:34.191Z,27.00
2018-07-27T12:45:00.223Z,28.00
2018-07-27T12:47:28.581Z,28.40
2018-07-27T12:49:57.314Z,28.70
2018-07-27T12:52:25.818Z,29.00
2018-07-27T12:54:54.448Z,29.30
2018-07-27T12:57:22.941Z,29.50
2018-07-27T12:59:51.397Z,29.70
2018-07-27T13:02:19.902Z,29.90
2018-07-27T13:04:48.525Z,30.00
2018-07-27T13:07:17.028Z,30.10
2018-07-27T13:09:45.247Z,30.20
2018-07-27T13:12:13.521Z,30.30
2018-07-27T13:17:10.309Z,30.30
2018-07-27T13:19:39.025Z,30.20
2018-07-27T13:22:07.823Z,29.80
2018-07-27T13:25:02.987Z,29.40
2018-07-27T13:29:33.046Z,28.60
2018-07-27T13:32:01.723Z,28.30
2018-07-27T13:34:34.860Z,28.00
2018-07-27T13:37:03.220Z,27.90
2018-07-27T13:39:32.236Z,27.70
2018-07-27T13:44:30.380Z,27.60
2018-07-27T13:49:27.498Z,27.60
2018-07-27T13:51:56.192Z,27.60
2018-07-27T13:54:24.707Z,27.50
2018-07-27T13:56:53.277Z,27.50
2018-07-27T13:59:21.749Z,27.40
2018-07-27T14:01:50.079Z,27.40
2018-07-27T14:04:18.303Z,27.30
2018-07-27T14:06:50.118Z,27.40
2018-07-27T14:09:19.014Z,27.60
2018-07-27T14:11:47.370Z,27.80
2018-07-27T14:14:15.811Z,28.00
2018-07-27T14:16:44.494Z,28.30
2018-07-27T14:19:13.578Z,28.60
2018-07-27T14:21:42.160Z,28.90
2018-07-27T14:24:10.610Z,29.20
2018-07-27T14:26:40.217Z,29.40
2018-07-27T14:31:36.845Z,29.80
2018-07-27T14:34:05.518Z,30.00
2018-07-27T14:36:33.921Z,30.20
2018-07-27T14:41:30.309Z,30.30
2018-07-27T14:43:58.832Z,30.20
2018-07-27T14:46:27.440Z,30.10
2018-07-27T14:48:56.049Z,30.10
2018-07-27T14:51:24.754Z,30.10
2018-07-27T14:53:53.155Z,30.20
2018-07-27T14:56:21.830Z,30.20
2018-07-27T14:58:50.332Z,30.30
2018-07-27T15:01:18.756Z,30.30
2018-07-27T15:03:47.264Z,30.30
2018-07-27T15:06:15.747Z,30.20
2018-07-27T15:08:44.259Z,30.00
2018-07-27T15:16:08.641Z,28.60
2018-07-27T15:18:36.925Z,28.30
2018-07-27T15:21:05.539Z,28.10
2018-07-27T15:26:02.040Z,27.60
2018-07-27T15:28:30.351Z,27.40
2018-07-27T15:30:58.981Z,27.20
2018-07-27T15:33:27.328Z,26.70
2018-07-27T15:35:55.733Z,26.40
2018-07-27T15:38:24.250Z,25.80
2018-07-27T15:40:54.055Z,25.40
2018-07-27T15:43:22.492Z,25.20
2018-07-27T15:45:50.968Z,25.00
2018-07-27T15:50:47.470Z,24.70
2018-07-27T15:53:16.101Z,24.60
2018-07-27T15:55:44.327Z,24.50
2018-07-27T15:58:12.884Z,24.50
2018-07-27T16:00:41.576Z,24.40
2018-07-27T16:03:10.072Z,24.40
2018-07-27T16:05:38.998Z,24.50
2018-07-27T16:08:07.592Z,24.50
2018-07-27T16:10:36.186Z,24.60
2018-07-27T16:13:04.701Z,24.60
2018-07-27T16:15:33.197Z,24.70
2018-07-27T16:20:29.675Z,24.60
2018-07-27T16:25:25.973Z,24.70
2018-07-27T16:30:23.390Z,24.70
2018-07-27T16:32:51.897Z,24.70
2018-07-27T16:35:20.610Z,24.70
2018-07-27T16:37:49.233Z,24.70
2018-07-27T16:40:17.900Z,24.70
2018-07-27T16:42:46.417Z,24.70
2018-07-27T16:47:43.114Z,24.70
2018-07-27T16:50:12.322Z,24.60
2018-07-27T16:52:40.714Z,24.60
2018-07-27T16:55:09.022Z,24.60
2018-07-27T16:57:37.133Z,24.60
2018-07-27T17:00:05.632Z,24.70
2018-07-27T17:02:34.047Z,24.70
2018-07-27T17:05:02.406Z,24.70
2018-07-27T17:09:59.336Z,24.80
2018-07-27T17:12:27.604Z,24.80
2018-07-27T17:14:56.121Z,24.80
2018-07-27T17:17:24.640Z,24.80
2018-07-27T17:19:53.218Z,24.90
2018-07-27T17:22:21.650Z,24.80
2018-07-27T17:24:50.031Z,24.80
2018-07-27T17:27:18.337Z,24.80
2018-07-27T17:29:48.276Z,24.80
2018-07-27T17:32:16.460Z,24.80
2018-07-27T17:37:13.041Z,24.70
2018-07-27T17:44:38.967Z,24.40
2018-07-27T17:47:07.408Z,24.30
2018-07-27T17:49:35.980Z,24.30
2018-07-27T17:52:04.571Z,24.20
2018-07-27T17:57:01.903Z,24.10
2018-07-27T17:59:30.296Z,24.00
2018-07-27T18:01:58.571Z,23.90
2018-07-27T18:06:57.480Z,23.80
2018-07-27T18:09:25.925Z,23.80
2018-07-27T18:14:24.012Z,23.70
2018-07-27T18:16:52.552Z,23.60
2018-07-27T18:21:49.259Z,23.50
2018-07-27T18:24:17.845Z,23.40
2018-07-27T18:26:46.343Z,23.30
2018-07-27T18:29:14.657Z,23.20
2018-07-27T18:34:34.771Z,23.00
2018-07-27T18:39:31.692Z,22.80
2018-07-27T18:41:59.991Z,22.70
2018-07-27T18:44:28.485Z,22.70
2018-07-27T18:46:58.109Z,22.60
2018-07-27T18:49:26.400Z,22.60
2018-07-27T18:54:22.998Z,22.50
2018-07-27T18:56:51.402Z,22.40
2018-07-27T18:59:19.692Z,22.40
2018-07-27T19:01:48.087Z,22.30
2018-07-27T19:04:18.249Z,22.20
2018-07-27T19:06:46.523Z,22.10
2018-07-27T19:11:44.572Z,22.00
2018-07-27T19:14:18.277Z,21.90
2018-07-27T19:16:47.178Z,21.90
2018-07-27T19:21:43.775Z,21.80
2018-07-27T19:24:13.081Z,21.70
2018-07-27T19:26:41.613Z,21.70
2018-07-27T19:29:09.777Z,21.60
2018-07-27T19:31:38.389Z,21.60
2018-07-27T19:34:07.619Z,21.60
2018-07-27T19:36:36.408Z,21.50
2018-07-27T19:41:40.038Z,21.50
2018-07-27T19:44:08.658Z,21.40
2018-07-27T19:46:37.108Z,21.30
2018-07-27T19:49:05.519Z,21.30
2018-07-27T19:51:34.803Z,21.30
2018-07-27T19:56:31.716Z,21.10
2018-07-27T19:58:59.803Z,21.00
2018-07-27T20:01:28.199Z,20.90
2018-07-27T20:06:24.731Z,20.80
2018-07-27T20:08:53.609Z,20.80
2018-07-27T20:11:22.211Z,20.80
2018-07-27T20:13:50.858Z,20.80
2018-07-27T20:16:20.318Z,20.80
2018-07-27T20:18:48.585Z,20.80
2018-07-27T20:21:17.050Z,20.80
2018-07-27T20:23:45.314Z,20.80
2018-07-27T20:26:13.426Z,20.80
2018-07-27T20:28:41.934Z,20.70
2018-07-27T20:31:10.635Z,20.70
2018-07-27T20:33:39.036Z,20.70
2018-07-27T20:36:07.564Z,20.70
2018-07-27T20:38:37.050Z,20.60
2018-07-27T20:41:05.444Z,20.60
2018-07-27T20:43:33.993Z,20.60
2018-07-27T20:46:02.228Z,20.60
2018-07-27T20:50:59.878Z,20.60
2018-07-27T20:56:00.341Z,20.60
2018-07-27T20:58:28.842Z,20.60
2018-07-27T21:03:25.351Z,20.60
2018-07-27T21:05:53.663Z,20.50
2018-07-27T21:08:22.377Z,20.50
2018-07-27T21:10:50.771Z,20.40
2018-07-27T21:13:19.134Z,20.30
2018-07-27T21:15:47.560Z,20.30
2018-07-27T21:18:20.361Z,20.20
2018-07-27T21:20:48.540Z,20.10
2018-07-27T21:28:15.382Z,20.00
2018-07-27T21:30:43.770Z,19.90
2018-07-27T21:33:13.406Z,19.90
2018-07-27T21:35:41.704Z,19.80
2018-07-27T21:40:38.994Z,19.80
2018-07-27T21:43:07.620Z,19.70
2018-07-27T21:48:04.252Z,19.60
2018-07-27T21:50:32.817Z,19.50
2018-07-27T21:53:01.048Z,19.50
2018-07-27T21:55:29.282Z,19.50
2018-07-27T21:57:57.990Z,19.50
2018-07-27T22:00:27.633Z,19.40
2018-07-27T22:02:56.027Z,19.40
2018-07-27T22:05:24.317Z,19.40
2018-07-27T22:07:54.667Z,19.40
2018-07-27T22:10:23.768Z,19.30
2018-07-27T22:12:52.290Z,19.30
2018-07-27T22:17:51.522Z,19.30
2018-07-27T22:20:20.688Z,19.20
2018-07-27T22:22:49.078Z,19.20
2018-07-27T22:25:17.668Z,19.20
2018-07-27T22:27:46.893Z,19.10
2018-07-27T22:32:44.710Z,19.20
2018-07-27T22:35:13.126Z,19.20
2018-07-27T22:37:41.419Z,19.20
2018-07-27T22:40:10.885Z,19.30
2018-07-27T22:42:39.213Z,19.30
2018-07-27T22:45:08.809Z,19.30
2018-07-27T22:47:37.780Z,19.40
2018-07-27T22:52:37.199Z,19.30
2018-07-27T22:55:06.813Z,19.30
2018-07-27T22:57:35.459Z,19.30
2018-07-27T23:00:04.321Z,19.30
2018-07-27T23:02:32.557Z,19.40
2018-07-27T23:07:29.152Z,19.50
2018-07-27T23:09:57.449Z,19.50
2018-07-27T23:12:25.839Z,19.50
2018-07-27T23:14:54.394Z,19.50
2018-07-27T23:17:25.018Z,19.50
2018-07-27T23:19:53.504Z,19.50
2018-07-27T23:22:21.820Z,19.50
2018-07-27T23:24:50.358Z,19.50
2018-07-27T23:27:18.905Z,19.50
2018-07-27T23:29:47.413Z,19.50
2018-07-27T23:37:15.600Z,19.40
2018-07-27T23:39:43.997Z,19.40
2018-07-27T23:42:13.495Z,19.40
2018-07-27T23:44:41.826Z,19.30
2018-07-27T23:47:10.293Z,19.20
2018-07-27T23:50:14.511Z,19.20
2018-07-27T23:52:42.819Z,19.10
2018-07-27T23:55:11.219Z,19.10
2018-07-27T23:57:39.509Z,19.00
